<?xml version="1.0" encoding="utf-8"?>
<gpx xmlns:xsi="http://www.w3.org/2001/XMLSchema-instance" xmlns:xsd="http://www.w3.org/2001/XMLSchema" version="1.1" creator="Shapelink.com" xmlns="http://www.topografix.com/GPX/1/1" xmlns:gpxtpx="http://www.garmin.com/xmlschemas/TrackPointExtension/v1">
  <metadata>
    <name>Sykling 19.50 km, 2012-05-30</name>
    <desc></desc>
    <author><name>Mikael Blom</name></author> 
    <time>2012-05-30T20:26:06Z</time>
  </metadata>
  <trk>
    <name>Sykling 19.50 km, 2012-05-30</name>
    <trkseg>
      <trkpt lat="59.8484478" lon="17.6449345">
        <ele>5.42456</ele>
        <time>2012-05-30T20:26:06Z</time>
      </trkpt>
      <trkpt lat="59.8485663" lon="17.6446251">
        <ele>4.94385</ele>
        <time>2012-05-30T20:26:12Z</time>
      </trkpt>
      <trkpt lat="59.8486461" lon="17.6442688">
        <ele>5.42456</ele>
        <time>2012-05-30T20:26:18Z</time>
      </trkpt>
      <trkpt lat="59.8487124" lon="17.6440789">
        <ele>6.38586</ele>
        <time>2012-05-30T20:26:23Z</time>
      </trkpt>
      <trkpt lat="59.8489591" lon="17.6440625">
        <ele>6.38586</ele>
        <time>2012-05-30T20:26:30Z</time>
      </trkpt>
      <trkpt lat="59.8493539" lon="17.6440125">
        <ele>5.90527</ele>
        <time>2012-05-30T20:26:39Z</time>
      </trkpt>
      <trkpt lat="59.8496034" lon="17.643875">
        <ele>5.42456</ele>
        <time>2012-05-30T20:26:45Z</time>
      </trkpt>
      <trkpt lat="59.8496732" lon="17.64385">
        <ele>5.42456</ele>
        <time>2012-05-30T20:26:47Z</time>
      </trkpt>
      <trkpt lat="59.8497361" lon="17.643795">
        <ele>5.42456</ele>
        <time>2012-05-30T20:26:49Z</time>
      </trkpt>
      <trkpt lat="59.8499108" lon="17.6436023">
        <ele>5.42456</ele>
        <time>2012-05-30T20:26:54Z</time>
      </trkpt>
      <trkpt lat="59.8499532" lon="17.6435634">
        <ele>5.90527</ele>
        <time>2012-05-30T20:26:55Z</time>
      </trkpt>
      <trkpt lat="59.8501144" lon="17.6433883">
        <ele>5.90527</ele>
        <time>2012-05-30T20:26:59Z</time>
      </trkpt>
      <trkpt lat="59.8503204" lon="17.6431273">
        <ele>7.82788</ele>
        <time>2012-05-30T20:27:04Z</time>
      </trkpt>
      <trkpt lat="59.8505214" lon="17.6429024">
        <ele>9.75061</ele>
        <time>2012-05-30T20:27:09Z</time>
      </trkpt>
      <trkpt lat="59.8506308" lon="17.6427857">
        <ele>11.1925</ele>
        <time>2012-05-30T20:27:12Z</time>
      </trkpt>
      <trkpt lat="59.8508066" lon="17.6425497">
        <ele>13.5958</ele>
        <time>2012-05-30T20:27:18Z</time>
      </trkpt>
      <trkpt lat="59.8510493" lon="17.6422657">
        <ele>13.5958</ele>
        <time>2012-05-30T20:27:24Z</time>
      </trkpt>
      <trkpt lat="59.851385" lon="17.6418477">
        <ele>12.6344</ele>
        <time>2012-05-30T20:27:31Z</time>
      </trkpt>
      <trkpt lat="59.8517129" lon="17.6414208">
        <ele>8.30859</ele>
        <time>2012-05-30T20:27:38Z</time>
      </trkpt>
      <trkpt lat="59.8520733" lon="17.6409522">
        <ele>3.98267</ele>
        <time>2012-05-30T20:27:46Z</time>
      </trkpt>
      <trkpt lat="59.8521674" lon="17.640836">
        <ele>3.50195</ele>
        <time>2012-05-30T20:27:48Z</time>
      </trkpt>
      <trkpt lat="59.8522605" lon="17.6407391">
        <ele>3.02124</ele>
        <time>2012-05-30T20:27:50Z</time>
      </trkpt>
      <trkpt lat="59.8524208" lon="17.6405222">
        <ele>2.54065</ele>
        <time>2012-05-30T20:27:54Z</time>
      </trkpt>
      <trkpt lat="59.8527442" lon="17.64022">
        <ele>1.57935</ele>
        <time>2012-05-30T20:28:01Z</time>
      </trkpt>
      <trkpt lat="59.852941" lon="17.6399606">
        <ele>0.137451</ele>
        <time>2012-05-30T20:28:06Z</time>
      </trkpt>
      <trkpt lat="59.8531908" lon="17.6396843">
        <ele>0</ele>
        <time>2012-05-30T20:28:12Z</time>
      </trkpt>
      <trkpt lat="59.8533585" lon="17.6395151">
        <ele>0.618042</ele>
        <time>2012-05-30T20:28:16Z</time>
      </trkpt>
      <trkpt lat="59.8537181" lon="17.6391209">
        <ele>5.90527</ele>
        <time>2012-05-30T20:28:24Z</time>
      </trkpt>
      <trkpt lat="59.8537574" lon="17.6390659">
        <ele>6.38586</ele>
        <time>2012-05-30T20:28:25Z</time>
      </trkpt>
      <trkpt lat="59.8539599" lon="17.6388138">
        <ele>6.86646</ele>
        <time>2012-05-30T20:28:30Z</time>
      </trkpt>
      <trkpt lat="59.8541495" lon="17.6387251">
        <ele>6.38586</ele>
        <time>2012-05-30T20:28:34Z</time>
      </trkpt>
      <trkpt lat="59.8542589" lon="17.6389148">
        <ele>6.86646</ele>
        <time>2012-05-30T20:28:37Z</time>
      </trkpt>
      <trkpt lat="59.8542762" lon="17.6390068">
        <ele>6.86646</ele>
        <time>2012-05-30T20:28:38Z</time>
      </trkpt>
      <trkpt lat="59.8544236" lon="17.6397207">
        <ele>6.86646</ele>
        <time>2012-05-30T20:28:46Z</time>
      </trkpt>
      <trkpt lat="59.8545339" lon="17.6401953">
        <ele>5.42456</ele>
        <time>2012-05-30T20:28:52Z</time>
      </trkpt>
      <trkpt lat="59.8545477" lon="17.6402574">
        <ele>5.42456</ele>
        <time>2012-05-30T20:28:53Z</time>
      </trkpt>
      <trkpt lat="59.8546109" lon="17.6403413">
        <ele>7.34717</ele>
        <time>2012-05-30T20:28:58Z</time>
      </trkpt>
      <trkpt lat="59.8546925" lon="17.6405434">
        <ele>6.86646</ele>
        <time>2012-05-30T20:29:03Z</time>
      </trkpt>
      <trkpt lat="59.8547743" lon="17.6408567">
        <ele>6.38586</ele>
        <time>2012-05-30T20:29:09Z</time>
      </trkpt>
      <trkpt lat="59.854896" lon="17.6412229">
        <ele>3.98267</ele>
        <time>2012-05-30T20:29:16Z</time>
      </trkpt>
      <trkpt lat="59.8550172" lon="17.64154">
        <ele>2.54065</ele>
        <time>2012-05-30T20:29:22Z</time>
      </trkpt>
      <trkpt lat="59.8551078" lon="17.6417154">
        <ele>2.06006</ele>
        <time>2012-05-30T20:29:26Z</time>
      </trkpt>
      <trkpt lat="59.8553242" lon="17.6416126">
        <ele>3.02124</ele>
        <time>2012-05-30T20:29:31Z</time>
      </trkpt>
      <trkpt lat="59.8553665" lon="17.6415521">
        <ele>3.50195</ele>
        <time>2012-05-30T20:29:32Z</time>
      </trkpt>
      <trkpt lat="59.8554496" lon="17.6414167">
        <ele>3.98267</ele>
        <time>2012-05-30T20:29:34Z</time>
      </trkpt>
      <trkpt lat="59.8556935" lon="17.6410635">
        <ele>4.46326</ele>
        <time>2012-05-30T20:29:40Z</time>
      </trkpt>
      <trkpt lat="59.8560123" lon="17.6406112">
        <ele>6.86646</ele>
        <time>2012-05-30T20:29:47Z</time>
      </trkpt>
      <trkpt lat="59.856059" lon="17.6405469">
        <ele>6.86646</ele>
        <time>2012-05-30T20:29:48Z</time>
      </trkpt>
      <trkpt lat="59.8562499" lon="17.6403371">
        <ele>6.86646</ele>
        <time>2012-05-30T20:29:52Z</time>
      </trkpt>
      <trkpt lat="59.8564247" lon="17.6401591">
        <ele>8.30859</ele>
        <time>2012-05-30T20:29:56Z</time>
      </trkpt>
      <trkpt lat="59.8568017" lon="17.6397343">
        <ele>9.2699</ele>
        <time>2012-05-30T20:30:05Z</time>
      </trkpt>
      <trkpt lat="59.856882" lon="17.6396352">
        <ele>9.2699</ele>
        <time>2012-05-30T20:30:07Z</time>
      </trkpt>
      <trkpt lat="59.8569577" lon="17.639524">
        <ele>10.2312</ele>
        <time>2012-05-30T20:30:09Z</time>
      </trkpt>
      <trkpt lat="59.8571892" lon="17.6391395">
        <ele>11.6732</ele>
        <time>2012-05-30T20:30:15Z</time>
      </trkpt>
      <trkpt lat="59.8572287" lon="17.639063">
        <ele>12.6344</ele>
        <time>2012-05-30T20:30:16Z</time>
      </trkpt>
      <trkpt lat="59.857401" lon="17.6387023">
        <ele>15.5184</ele>
        <time>2012-05-30T20:30:21Z</time>
      </trkpt>
      <trkpt lat="59.8574809" lon="17.638568">
        <ele>17.4412</ele>
        <time>2012-05-30T20:30:23Z</time>
      </trkpt>
      <trkpt lat="59.8577285" lon="17.6380771">
        <ele>19.8444</ele>
        <time>2012-05-30T20:30:30Z</time>
      </trkpt>
      <trkpt lat="59.8578721" lon="17.6378264">
        <ele>20.325</ele>
        <time>2012-05-30T20:30:34Z</time>
      </trkpt>
      <trkpt lat="59.8580736" lon="17.6373121">
        <ele>26.5736</ele>
        <time>2012-05-30T20:30:41Z</time>
      </trkpt>
      <trkpt lat="59.8583018" lon="17.6369179">
        <ele>25.1317</ele>
        <time>2012-05-30T20:30:47Z</time>
      </trkpt>
      <trkpt lat="59.8584141" lon="17.636704">
        <ele>25.1317</ele>
        <time>2012-05-30T20:30:50Z</time>
      </trkpt>
      <trkpt lat="59.8586768" lon="17.6361035">
        <ele>25.6123</ele>
        <time>2012-05-30T20:30:58Z</time>
      </trkpt>
      <trkpt lat="59.8589085" lon="17.6356648">
        <ele>23.209</ele>
        <time>2012-05-30T20:31:04Z</time>
      </trkpt>
      <trkpt lat="59.8593781" lon="17.6348405">
        <ele>21.767</ele>
        <time>2012-05-30T20:31:15Z</time>
      </trkpt>
      <trkpt lat="59.8594949" lon="17.6346272">
        <ele>21.2864</ele>
        <time>2012-05-30T20:31:18Z</time>
      </trkpt>
      <trkpt lat="59.8597068" lon="17.6343024">
        <ele>20.8057</ele>
        <time>2012-05-30T20:31:23Z</time>
      </trkpt>
      <trkpt lat="59.8600496" lon="17.6339577">
        <ele>17.4412</ele>
        <time>2012-05-30T20:31:30Z</time>
      </trkpt>
      <trkpt lat="59.8602495" lon="17.63395">
        <ele>15.0377</ele>
        <time>2012-05-30T20:31:34Z</time>
      </trkpt>
      <trkpt lat="59.860411" lon="17.6342165">
        <ele>15.0377</ele>
        <time>2012-05-30T20:31:38Z</time>
      </trkpt>
      <trkpt lat="59.8606271" lon="17.6346676">
        <ele>14.0764</ele>
        <time>2012-05-30T20:31:45Z</time>
      </trkpt>
      <trkpt lat="59.8606517" lon="17.6347063">
        <ele>14.0764</ele>
        <time>2012-05-30T20:31:46Z</time>
      </trkpt>
      <trkpt lat="59.8607433" lon="17.6348839">
        <ele>14.0764</ele>
        <time>2012-05-30T20:31:50Z</time>
      </trkpt>
      <trkpt lat="59.8608697" lon="17.6347914">
        <ele>13.5958</ele>
        <time>2012-05-30T20:31:54Z</time>
      </trkpt>
      <trkpt lat="59.861138" lon="17.6342792">
        <ele>11.6732</ele>
        <time>2012-05-30T20:32:01Z</time>
      </trkpt>
      <trkpt lat="59.8614088" lon="17.6336977">
        <ele>13.1151</ele>
        <time>2012-05-30T20:32:08Z</time>
      </trkpt>
      <trkpt lat="59.8617413" lon="17.6330949">
        <ele>12.1538</ele>
        <time>2012-05-30T20:32:16Z</time>
      </trkpt>
      <trkpt lat="59.8621035" lon="17.6324408">
        <ele>10.7118</ele>
        <time>2012-05-30T20:32:24Z</time>
      </trkpt>
      <trkpt lat="59.8621534" lon="17.6323688">
        <ele>10.7118</ele>
        <time>2012-05-30T20:32:25Z</time>
      </trkpt>
      <trkpt lat="59.8623873" lon="17.6323911">
        <ele>10.7118</ele>
        <time>2012-05-30T20:32:29Z</time>
      </trkpt>
      <trkpt lat="59.862446" lon="17.6324599">
        <ele>11.1925</ele>
        <time>2012-05-30T20:32:30Z</time>
      </trkpt>
      <trkpt lat="59.8628065" lon="17.6331206">
        <ele>15.999</ele>
        <time>2012-05-30T20:32:38Z</time>
      </trkpt>
      <trkpt lat="59.8629703" lon="17.6334995">
        <ele>14.0764</ele>
        <time>2012-05-30T20:32:43Z</time>
      </trkpt>
      <trkpt lat="59.863157" lon="17.6340346">
        <ele>11.6732</ele>
        <time>2012-05-30T20:32:51Z</time>
      </trkpt>
      <trkpt lat="59.8633391" lon="17.6344749">
        <ele>13.5958</ele>
        <time>2012-05-30T20:32:59Z</time>
      </trkpt>
      <trkpt lat="59.8634337" lon="17.634664">
        <ele>14.557</ele>
        <time>2012-05-30T20:33:05Z</time>
      </trkpt>
      <trkpt lat="59.8634457" lon="17.6346952">
        <ele>15.5184</ele>
        <time>2012-05-30T20:33:11Z</time>
      </trkpt>
      <trkpt lat="59.8633963" lon="17.6347456">
        <ele>11.1925</ele>
        <time>2012-05-30T20:33:23Z</time>
      </trkpt>
      <trkpt lat="59.8634832" lon="17.6349353">
        <ele>12.1538</ele>
        <time>2012-05-30T20:33:27Z</time>
      </trkpt>
      <trkpt lat="59.8636555" lon="17.6353601">
        <ele>11.6732</ele>
        <time>2012-05-30T20:33:32Z</time>
      </trkpt>
      <trkpt lat="59.8637239" lon="17.6355524">
        <ele>11.1925</ele>
        <time>2012-05-30T20:33:34Z</time>
      </trkpt>
      <trkpt lat="59.8639322" lon="17.6358278">
        <ele>12.1538</ele>
        <time>2012-05-30T20:33:38Z</time>
      </trkpt>
      <trkpt lat="59.8641964" lon="17.636335">
        <ele>11.6732</ele>
        <time>2012-05-30T20:33:43Z</time>
      </trkpt>
      <trkpt lat="59.8644517" lon="17.6370022">
        <ele>11.6732</ele>
        <time>2012-05-30T20:33:49Z</time>
      </trkpt>
      <trkpt lat="59.8644909" lon="17.6373597">
        <ele>11.6732</ele>
        <time>2012-05-30T20:33:53Z</time>
      </trkpt>
      <trkpt lat="59.8645573" lon="17.6377431">
        <ele>12.1538</ele>
        <time>2012-05-30T20:33:58Z</time>
      </trkpt>
      <trkpt lat="59.8646392" lon="17.6379438">
        <ele>10.7118</ele>
        <time>2012-05-30T20:34:01Z</time>
      </trkpt>
      <trkpt lat="59.8647568" lon="17.6382625">
        <ele>11.6732</ele>
        <time>2012-05-30T20:34:05Z</time>
      </trkpt>
      <trkpt lat="59.8650582" lon="17.6388858">
        <ele>13.1151</ele>
        <time>2012-05-30T20:34:13Z</time>
      </trkpt>
      <trkpt lat="59.8651576" lon="17.6391161">
        <ele>12.6344</ele>
        <time>2012-05-30T20:34:16Z</time>
      </trkpt>
      <trkpt lat="59.8652888" lon="17.639381">
        <ele>13.1151</ele>
        <time>2012-05-30T20:34:20Z</time>
      </trkpt>
      <trkpt lat="59.8655412" lon="17.6398508">
        <ele>12.6344</ele>
        <time>2012-05-30T20:34:27Z</time>
      </trkpt>
      <trkpt lat="59.8658151" lon="17.6404551">
        <ele>11.6732</ele>
        <time>2012-05-30T20:34:35Z</time>
      </trkpt>
      <trkpt lat="59.8658441" lon="17.6405077">
        <ele>11.6732</ele>
        <time>2012-05-30T20:34:36Z</time>
      </trkpt>
      <trkpt lat="59.8659413" lon="17.6405761">
        <ele>9.75061</ele>
        <time>2012-05-30T20:34:40Z</time>
      </trkpt>
      <trkpt lat="59.8660232" lon="17.6406932">
        <ele>10.7118</ele>
        <time>2012-05-30T20:34:43Z</time>
      </trkpt>
      <trkpt lat="59.8660721" lon="17.6408097">
        <ele>10.7118</ele>
        <time>2012-05-30T20:34:45Z</time>
      </trkpt>
      <trkpt lat="59.8662519" lon="17.6409838">
        <ele>11.6732</ele>
        <time>2012-05-30T20:34:50Z</time>
      </trkpt>
      <trkpt lat="59.8664324" lon="17.6413012">
        <ele>11.1925</ele>
        <time>2012-05-30T20:34:55Z</time>
      </trkpt>
      <trkpt lat="59.8666491" lon="17.6417186">
        <ele>9.75061</ele>
        <time>2012-05-30T20:35:01Z</time>
      </trkpt>
      <trkpt lat="59.8669167" lon="17.6421383">
        <ele>9.75061</ele>
        <time>2012-05-30T20:35:07Z</time>
      </trkpt>
      <trkpt lat="59.8673479" lon="17.642887">
        <ele>12.1538</ele>
        <time>2012-05-30T20:35:16Z</time>
      </trkpt>
      <trkpt lat="59.8677661" lon="17.6435616">
        <ele>15.0377</ele>
        <time>2012-05-30T20:35:24Z</time>
      </trkpt>
      <trkpt lat="59.8680674" lon="17.6440751">
        <ele>15.999</ele>
        <time>2012-05-30T20:35:30Z</time>
      </trkpt>
      <trkpt lat="59.8682183" lon="17.6444968">
        <ele>16.4797</ele>
        <time>2012-05-30T20:35:34Z</time>
      </trkpt>
      <trkpt lat="59.8683159" lon="17.6446233">
        <ele>15.999</ele>
        <time>2012-05-30T20:35:36Z</time>
      </trkpt>
      <trkpt lat="59.8686118" lon="17.6449759">
        <ele>16.4797</ele>
        <time>2012-05-30T20:35:42Z</time>
      </trkpt>
      <trkpt lat="59.8689843" lon="17.6456013">
        <ele>14.557</ele>
        <time>2012-05-30T20:35:50Z</time>
      </trkpt>
      <trkpt lat="59.8693242" lon="17.6461887">
        <ele>12.1538</ele>
        <time>2012-05-30T20:35:57Z</time>
      </trkpt>
      <trkpt lat="59.8697236" lon="17.6468926">
        <ele>11.1925</ele>
        <time>2012-05-30T20:36:05Z</time>
      </trkpt>
      <trkpt lat="59.8701327" lon="17.6475853">
        <ele>11.1925</ele>
        <time>2012-05-30T20:36:13Z</time>
      </trkpt>
      <trkpt lat="59.8706305" lon="17.6483887">
        <ele>12.6344</ele>
        <time>2012-05-30T20:36:23Z</time>
      </trkpt>
      <trkpt lat="59.8709404" lon="17.6489252">
        <ele>14.557</ele>
        <time>2012-05-30T20:36:30Z</time>
      </trkpt>
      <trkpt lat="59.8713525" lon="17.6496314">
        <ele>11.6732</ele>
        <time>2012-05-30T20:36:39Z</time>
      </trkpt>
      <trkpt lat="59.8716946" lon="17.6501186">
        <ele>11.6732</ele>
        <time>2012-05-30T20:36:46Z</time>
      </trkpt>
      <trkpt lat="59.8719218" lon="17.6504937">
        <ele>11.6732</ele>
        <time>2012-05-30T20:36:52Z</time>
      </trkpt>
      <trkpt lat="59.8719938" lon="17.6506156">
        <ele>11.6732</ele>
        <time>2012-05-30T20:36:56Z</time>
      </trkpt>
      <trkpt lat="59.8720067" lon="17.6506326">
        <ele>12.1538</ele>
        <time>2012-05-30T20:37:01Z</time>
      </trkpt>
      <trkpt lat="59.872057" lon="17.6506964">
        <ele>13.5958</ele>
        <time>2012-05-30T20:37:11Z</time>
      </trkpt>
      <trkpt lat="59.8721955" lon="17.650949">
        <ele>14.557</ele>
        <time>2012-05-30T20:37:16Z</time>
      </trkpt>
      <trkpt lat="59.8724305" lon="17.6513645">
        <ele>14.557</ele>
        <time>2012-05-30T20:37:22Z</time>
      </trkpt>
      <trkpt lat="59.8728848" lon="17.6521557">
        <ele>12.6344</ele>
        <time>2012-05-30T20:37:32Z</time>
      </trkpt>
      <trkpt lat="59.8732361" lon="17.6526494">
        <ele>13.5958</ele>
        <time>2012-05-30T20:37:39Z</time>
      </trkpt>
      <trkpt lat="59.8736429" lon="17.6531865">
        <ele>14.557</ele>
        <time>2012-05-30T20:37:47Z</time>
      </trkpt>
      <trkpt lat="59.8740722" lon="17.653665">
        <ele>16.4797</ele>
        <time>2012-05-30T20:37:55Z</time>
      </trkpt>
      <trkpt lat="59.8745602" lon="17.6541399">
        <ele>17.9218</ele>
        <time>2012-05-30T20:38:04Z</time>
      </trkpt>
      <trkpt lat="59.8749154" lon="17.6544956">
        <ele>16.4797</ele>
        <time>2012-05-30T20:38:11Z</time>
      </trkpt>
      <trkpt lat="59.8752968" lon="17.6547714">
        <ele>17.9218</ele>
        <time>2012-05-30T20:38:18Z</time>
      </trkpt>
      <trkpt lat="59.8757343" lon="17.6550544">
        <ele>18.4023</ele>
        <time>2012-05-30T20:38:26Z</time>
      </trkpt>
      <trkpt lat="59.8762463" lon="17.6553248">
        <ele>16.9604</ele>
        <time>2012-05-30T20:38:35Z</time>
      </trkpt>
      <trkpt lat="59.8766938" lon="17.6555012">
        <ele>15.5184</ele>
        <time>2012-05-30T20:38:43Z</time>
      </trkpt>
      <trkpt lat="59.8771384" lon="17.6556235">
        <ele>15.5184</ele>
        <time>2012-05-30T20:38:51Z</time>
      </trkpt>
      <trkpt lat="59.8776801" lon="17.6557144">
        <ele>15.999</ele>
        <time>2012-05-30T20:39:01Z</time>
      </trkpt>
      <trkpt lat="59.878071" lon="17.655732">
        <ele>16.4797</ele>
        <time>2012-05-30T20:39:08Z</time>
      </trkpt>
      <trkpt lat="59.8784442" lon="17.6557054">
        <ele>15.999</ele>
        <time>2012-05-30T20:39:15Z</time>
      </trkpt>
      <trkpt lat="59.8786613" lon="17.6556681">
        <ele>16.4797</ele>
        <time>2012-05-30T20:39:19Z</time>
      </trkpt>
      <trkpt lat="59.8789301" lon="17.6557403">
        <ele>17.4412</ele>
        <time>2012-05-30T20:39:24Z</time>
      </trkpt>
      <trkpt lat="59.8790413" lon="17.6556998">
        <ele>17.9218</ele>
        <time>2012-05-30T20:39:26Z</time>
      </trkpt>
      <trkpt lat="59.8791496" lon="17.6556745">
        <ele>18.4023</ele>
        <time>2012-05-30T20:39:28Z</time>
      </trkpt>
      <trkpt lat="59.8794698" lon="17.655706">
        <ele>18.8831</ele>
        <time>2012-05-30T20:39:34Z</time>
      </trkpt>
      <trkpt lat="59.8798977" lon="17.6556201">
        <ele>19.3638</ele>
        <time>2012-05-30T20:39:42Z</time>
      </trkpt>
      <trkpt lat="59.8804701" lon="17.6555443">
        <ele>19.8444</ele>
        <time>2012-05-30T20:39:52Z</time>
      </trkpt>
      <trkpt lat="59.8810592" lon="17.6555227">
        <ele>19.8444</ele>
        <time>2012-05-30T20:40:02Z</time>
      </trkpt>
      <trkpt lat="59.8813594" lon="17.6555211">
        <ele>20.325</ele>
        <time>2012-05-30T20:40:07Z</time>
      </trkpt>
      <trkpt lat="59.8820155" lon="17.6555915">
        <ele>20.325</ele>
        <time>2012-05-30T20:40:18Z</time>
      </trkpt>
      <trkpt lat="59.8826214" lon="17.6556406">
        <ele>20.325</ele>
        <time>2012-05-30T20:40:28Z</time>
      </trkpt>
      <trkpt lat="59.8831668" lon="17.6556724">
        <ele>20.325</ele>
        <time>2012-05-30T20:40:37Z</time>
      </trkpt>
      <trkpt lat="59.8834491" lon="17.6556055">
        <ele>20.8057</ele>
        <time>2012-05-30T20:40:42Z</time>
      </trkpt>
      <trkpt lat="59.883806" lon="17.6556226">
        <ele>23.209</ele>
        <time>2012-05-30T20:40:49Z</time>
      </trkpt>
      <trkpt lat="59.884233" lon="17.6556763">
        <ele>24.651</ele>
        <time>2012-05-30T20:40:58Z</time>
      </trkpt>
      <trkpt lat="59.8846122" lon="17.6557812">
        <ele>24.1703</ele>
        <time>2012-05-30T20:41:05Z</time>
      </trkpt>
      <trkpt lat="59.8847876" lon="17.6558867">
        <ele>23.6896</ele>
        <time>2012-05-30T20:41:08Z</time>
      </trkpt>
      <trkpt lat="59.8851671" lon="17.6564272">
        <ele>23.6896</ele>
        <time>2012-05-30T20:41:15Z</time>
      </trkpt>
      <trkpt lat="59.885438" lon="17.6569266">
        <ele>24.1703</ele>
        <time>2012-05-30T20:41:21Z</time>
      </trkpt>
      <trkpt lat="59.8856591" lon="17.6570177">
        <ele>23.6896</ele>
        <time>2012-05-30T20:41:25Z</time>
      </trkpt>
      <trkpt lat="59.8857756" lon="17.6569208">
        <ele>23.209</ele>
        <time>2012-05-30T20:41:27Z</time>
      </trkpt>
      <trkpt lat="59.886076" lon="17.6564354">
        <ele>23.6896</ele>
        <time>2012-05-30T20:41:33Z</time>
      </trkpt>
      <trkpt lat="59.8863035" lon="17.6558203">
        <ele>23.209</ele>
        <time>2012-05-30T20:41:39Z</time>
      </trkpt>
      <trkpt lat="59.8865779" lon="17.6555009">
        <ele>25.1317</ele>
        <time>2012-05-30T20:41:44Z</time>
      </trkpt>
      <trkpt lat="59.8866966" lon="17.6554331">
        <ele>25.6123</ele>
        <time>2012-05-30T20:41:46Z</time>
      </trkpt>
      <trkpt lat="59.8869156" lon="17.655064">
        <ele>26.5736</ele>
        <time>2012-05-30T20:41:51Z</time>
      </trkpt>
      <trkpt lat="59.8869816" lon="17.6548667">
        <ele>26.5736</ele>
        <time>2012-05-30T20:41:53Z</time>
      </trkpt>
      <trkpt lat="59.8873486" lon="17.6538812">
        <ele>27.0543</ele>
        <time>2012-05-30T20:42:03Z</time>
      </trkpt>
      <trkpt lat="59.8875627" lon="17.6533025">
        <ele>27.0543</ele>
        <time>2012-05-30T20:42:09Z</time>
      </trkpt>
      <trkpt lat="59.8878478" lon="17.6525317">
        <ele>26.5736</ele>
        <time>2012-05-30T20:42:17Z</time>
      </trkpt>
      <trkpt lat="59.8881435" lon="17.6516801">
        <ele>26.5736</ele>
        <time>2012-05-30T20:42:26Z</time>
      </trkpt>
      <trkpt lat="59.88817" lon="17.6515759">
        <ele>27.0543</ele>
        <time>2012-05-30T20:42:27Z</time>
      </trkpt>
      <trkpt lat="59.8883497" lon="17.6509352">
        <ele>33.3029</ele>
        <time>2012-05-30T20:42:33Z</time>
      </trkpt>
      <trkpt lat="59.8886217" lon="17.6502781">
        <ele>36.1868</ele>
        <time>2012-05-30T20:42:40Z</time>
      </trkpt>
      <trkpt lat="59.8888862" lon="17.6496655">
        <ele>34.7449</ele>
        <time>2012-05-30T20:42:47Z</time>
      </trkpt>
      <trkpt lat="59.8889194" lon="17.6495762">
        <ele>35.2255</ele>
        <time>2012-05-30T20:42:48Z</time>
      </trkpt>
      <trkpt lat="59.8890308" lon="17.6493527">
        <ele>34.7449</ele>
        <time>2012-05-30T20:42:51Z</time>
      </trkpt>
      <trkpt lat="59.889281" lon="17.6487338">
        <ele>31.3801</ele>
        <time>2012-05-30T20:42:59Z</time>
      </trkpt>
      <trkpt lat="59.8893886" lon="17.6484596">
        <ele>31.8607</ele>
        <time>2012-05-30T20:43:02Z</time>
      </trkpt>
      <trkpt lat="59.8895917" lon="17.6477269">
        <ele>32.3416</ele>
        <time>2012-05-30T20:43:09Z</time>
      </trkpt>
      <trkpt lat="59.8896405" lon="17.6475193">
        <ele>30.4188</ele>
        <time>2012-05-30T20:43:11Z</time>
      </trkpt>
      <trkpt lat="59.8897923" lon="17.6467838">
        <ele>24.1703</ele>
        <time>2012-05-30T20:43:17Z</time>
      </trkpt>
      <trkpt lat="59.8898297" lon="17.6466575">
        <ele>24.651</ele>
        <time>2012-05-30T20:43:18Z</time>
      </trkpt>
      <trkpt lat="59.8900343" lon="17.6461484">
        <ele>26.5736</ele>
        <time>2012-05-30T20:43:23Z</time>
      </trkpt>
      <trkpt lat="59.8900684" lon="17.6460717">
        <ele>27.0543</ele>
        <time>2012-05-30T20:43:24Z</time>
      </trkpt>
      <trkpt lat="59.8902321" lon="17.6459436">
        <ele>27.0543</ele>
        <time>2012-05-30T20:43:28Z</time>
      </trkpt>
      <trkpt lat="59.8903935" lon="17.6460204">
        <ele>26.5736</ele>
        <time>2012-05-30T20:43:32Z</time>
      </trkpt>
      <trkpt lat="59.8905587" lon="17.6460647">
        <ele>25.1317</ele>
        <time>2012-05-30T20:43:36Z</time>
      </trkpt>
      <trkpt lat="59.8909257" lon="17.6462745">
        <ele>26.0929</ele>
        <time>2012-05-30T20:43:44Z</time>
      </trkpt>
      <trkpt lat="59.8913652" lon="17.6464513">
        <ele>27.5349</ele>
        <time>2012-05-30T20:43:53Z</time>
      </trkpt>
      <trkpt lat="59.8915157" lon="17.6465122">
        <ele>28.4962</ele>
        <time>2012-05-30T20:43:56Z</time>
      </trkpt>
      <trkpt lat="59.891687" lon="17.6463776">
        <ele>28.9769</ele>
        <time>2012-05-30T20:44:00Z</time>
      </trkpt>
      <trkpt lat="59.8917294" lon="17.6461829">
        <ele>29.9381</ele>
        <time>2012-05-30T20:44:02Z</time>
      </trkpt>
      <trkpt lat="59.89186" lon="17.6451355">
        <ele>30.8995</ele>
        <time>2012-05-30T20:44:11Z</time>
      </trkpt>
      <trkpt lat="59.8919223" lon="17.6444414">
        <ele>31.8607</ele>
        <time>2012-05-30T20:44:17Z</time>
      </trkpt>
      <trkpt lat="59.8920633" lon="17.6441456">
        <ele>31.3801</ele>
        <time>2012-05-30T20:44:21Z</time>
      </trkpt>
      <trkpt lat="59.8921179" lon="17.6441641">
        <ele>31.3801</ele>
        <time>2012-05-30T20:44:22Z</time>
      </trkpt>
      <trkpt lat="59.8922611" lon="17.6442354">
        <ele>30.8995</ele>
        <time>2012-05-30T20:44:25Z</time>
      </trkpt>
      <trkpt lat="59.8923977" lon="17.6441051">
        <ele>31.3801</ele>
        <time>2012-05-30T20:44:29Z</time>
      </trkpt>
      <trkpt lat="59.8924211" lon="17.6440392">
        <ele>31.3801</ele>
        <time>2012-05-30T20:44:30Z</time>
      </trkpt>
      <trkpt lat="59.892467" lon="17.6438918">
        <ele>31.3801</ele>
        <time>2012-05-30T20:44:32Z</time>
      </trkpt>
      <trkpt lat="59.8925241" lon="17.6436285">
        <ele>30.4188</ele>
        <time>2012-05-30T20:44:35Z</time>
      </trkpt>
      <trkpt lat="59.8925903" lon="17.6431183">
        <ele>30.4188</ele>
        <time>2012-05-30T20:44:40Z</time>
      </trkpt>
      <trkpt lat="59.8927646" lon="17.642701">
        <ele>30.4188</ele>
        <time>2012-05-30T20:44:45Z</time>
      </trkpt>
      <trkpt lat="59.8928382" lon="17.6425308">
        <ele>30.8995</ele>
        <time>2012-05-30T20:44:47Z</time>
      </trkpt>
      <trkpt lat="59.8930703" lon="17.6420419">
        <ele>33.3029</ele>
        <time>2012-05-30T20:44:53Z</time>
      </trkpt>
      <trkpt lat="59.8933637" lon="17.641386">
        <ele>33.3029</ele>
        <time>2012-05-30T20:45:01Z</time>
      </trkpt>
      <trkpt lat="59.8935617" lon="17.6406719">
        <ele>32.3416</ele>
        <time>2012-05-30T20:45:08Z</time>
      </trkpt>
      <trkpt lat="59.89378" lon="17.6398397">
        <ele>32.8223</ele>
        <time>2012-05-30T20:45:16Z</time>
      </trkpt>
      <trkpt lat="59.8938566" lon="17.6395348">
        <ele>32.8223</ele>
        <time>2012-05-30T20:45:19Z</time>
      </trkpt>
      <trkpt lat="59.8941428" lon="17.6388565">
        <ele>32.3416</ele>
        <time>2012-05-30T20:45:27Z</time>
      </trkpt>
      <trkpt lat="59.8944942" lon="17.6382342">
        <ele>32.8223</ele>
        <time>2012-05-30T20:45:35Z</time>
      </trkpt>
      <trkpt lat="59.8945837" lon="17.6380927">
        <ele>32.8223</ele>
        <time>2012-05-30T20:45:37Z</time>
      </trkpt>
      <trkpt lat="59.8947288" lon="17.637753">
        <ele>32.3416</ele>
        <time>2012-05-30T20:45:41Z</time>
      </trkpt>
      <trkpt lat="59.8947863" lon="17.6375498">
        <ele>32.3416</ele>
        <time>2012-05-30T20:45:43Z</time>
      </trkpt>
      <trkpt lat="59.8948221" lon="17.6373279">
        <ele>31.3801</ele>
        <time>2012-05-30T20:45:45Z</time>
      </trkpt>
      <trkpt lat="59.894961" lon="17.6369498">
        <ele>30.8995</ele>
        <time>2012-05-30T20:45:49Z</time>
      </trkpt>
      <trkpt lat="59.8950163" lon="17.6368971">
        <ele>30.4188</ele>
        <time>2012-05-30T20:45:50Z</time>
      </trkpt>
      <trkpt lat="59.8955758" lon="17.6365502">
        <ele>30.8995</ele>
        <time>2012-05-30T20:45:59Z</time>
      </trkpt>
      <trkpt lat="59.895983" lon="17.6364616">
        <ele>31.8607</ele>
        <time>2012-05-30T20:46:05Z</time>
      </trkpt>
      <trkpt lat="59.8964511" lon="17.6365324">
        <ele>31.3801</ele>
        <time>2012-05-30T20:46:12Z</time>
      </trkpt>
      <trkpt lat="59.8970434" lon="17.636765">
        <ele>30.8995</ele>
        <time>2012-05-30T20:46:21Z</time>
      </trkpt>
      <trkpt lat="59.8971123" lon="17.6367934">
        <ele>30.8995</ele>
        <time>2012-05-30T20:46:22Z</time>
      </trkpt>
      <trkpt lat="59.8974702" lon="17.6368562">
        <ele>29.9381</ele>
        <time>2012-05-30T20:46:27Z</time>
      </trkpt>
      <trkpt lat="59.8977468" lon="17.6370603">
        <ele>29.9381</ele>
        <time>2012-05-30T20:46:31Z</time>
      </trkpt>
      <trkpt lat="59.8983633" lon="17.6375347">
        <ele>28.9769</ele>
        <time>2012-05-30T20:46:39Z</time>
      </trkpt>
      <trkpt lat="59.89888" lon="17.6379912">
        <ele>28.9769</ele>
        <time>2012-05-30T20:46:46Z</time>
      </trkpt>
      <trkpt lat="59.8995416" lon="17.6386371">
        <ele>26.5736</ele>
        <time>2012-05-30T20:46:55Z</time>
      </trkpt>
      <trkpt lat="59.9000575" lon="17.6391573">
        <ele>27.0543</ele>
        <time>2012-05-30T20:47:02Z</time>
      </trkpt>
      <trkpt lat="59.900719" lon="17.6398418">
        <ele>26.0929</ele>
        <time>2012-05-30T20:47:12Z</time>
      </trkpt>
      <trkpt lat="59.9015094" lon="17.6406362">
        <ele>25.6123</ele>
        <time>2012-05-30T20:47:24Z</time>
      </trkpt>
      <trkpt lat="59.9022044" lon="17.641236">
        <ele>24.651</ele>
        <time>2012-05-30T20:47:34Z</time>
      </trkpt>
      <trkpt lat="59.9029856" lon="17.6417232">
        <ele>23.6896</ele>
        <time>2012-05-30T20:47:45Z</time>
      </trkpt>
      <trkpt lat="59.9035329" lon="17.6420105">
        <ele>23.6896</ele>
        <time>2012-05-30T20:47:53Z</time>
      </trkpt>
      <trkpt lat="59.9037763" lon="17.6420641">
        <ele>23.209</ele>
        <time>2012-05-30T20:47:57Z</time>
      </trkpt>
      <trkpt lat="59.9043664" lon="17.6423855">
        <ele>22.7283</ele>
        <time>2012-05-30T20:48:06Z</time>
      </trkpt>
      <trkpt lat="59.9049175" lon="17.6427271">
        <ele>22.2476</ele>
        <time>2012-05-30T20:48:14Z</time>
      </trkpt>
      <trkpt lat="59.9053595" lon="17.642952">
        <ele>22.7283</ele>
        <time>2012-05-30T20:48:21Z</time>
      </trkpt>
      <trkpt lat="59.9055532" lon="17.6429661">
        <ele>22.7283</ele>
        <time>2012-05-30T20:48:24Z</time>
      </trkpt>
      <trkpt lat="59.9061339" lon="17.6431981">
        <ele>23.6896</ele>
        <time>2012-05-30T20:48:33Z</time>
      </trkpt>
      <trkpt lat="59.9066519" lon="17.6433985">
        <ele>25.6123</ele>
        <time>2012-05-30T20:48:42Z</time>
      </trkpt>
      <trkpt lat="59.907158" lon="17.643524">
        <ele>27.0543</ele>
        <time>2012-05-30T20:48:51Z</time>
      </trkpt>
      <trkpt lat="59.907779" lon="17.6436312">
        <ele>28.0155</ele>
        <time>2012-05-30T20:49:02Z</time>
      </trkpt>
      <trkpt lat="59.9082686" lon="17.6437116">
        <ele>28.4962</ele>
        <time>2012-05-30T20:49:11Z</time>
      </trkpt>
      <trkpt lat="59.9087179" lon="17.6437251">
        <ele>28.4962</ele>
        <time>2012-05-30T20:49:19Z</time>
      </trkpt>
      <trkpt lat="59.9093195" lon="17.6436622">
        <ele>28.9769</ele>
        <time>2012-05-30T20:49:29Z</time>
      </trkpt>
      <trkpt lat="59.9098165" lon="17.6435588">
        <ele>29.4575</ele>
        <time>2012-05-30T20:49:37Z</time>
      </trkpt>
      <trkpt lat="59.9100551" lon="17.643624">
        <ele>29.9381</ele>
        <time>2012-05-30T20:49:41Z</time>
      </trkpt>
      <trkpt lat="59.9103723" lon="17.6436279">
        <ele>31.3801</ele>
        <time>2012-05-30T20:49:47Z</time>
      </trkpt>
      <trkpt lat="59.9106537" lon="17.6434891">
        <ele>30.8995</ele>
        <time>2012-05-30T20:49:52Z</time>
      </trkpt>
      <trkpt lat="59.9112545" lon="17.6433701">
        <ele>31.8607</ele>
        <time>2012-05-30T20:50:02Z</time>
      </trkpt>
      <trkpt lat="59.9117505" lon="17.6432686">
        <ele>31.3801</ele>
        <time>2012-05-30T20:50:10Z</time>
      </trkpt>
      <trkpt lat="59.9121934" lon="17.6431329">
        <ele>30.4188</ele>
        <time>2012-05-30T20:50:17Z</time>
      </trkpt>
      <trkpt lat="59.912539" lon="17.6430638">
        <ele>29.4575</ele>
        <time>2012-05-30T20:50:22Z</time>
      </trkpt>
      <trkpt lat="59.9128544" lon="17.6431318">
        <ele>30.8995</ele>
        <time>2012-05-30T20:50:27Z</time>
      </trkpt>
      <trkpt lat="59.9134456" lon="17.6430314">
        <ele>29.4575</ele>
        <time>2012-05-30T20:50:37Z</time>
      </trkpt>
      <trkpt lat="59.9140259" lon="17.6429268">
        <ele>28.4962</ele>
        <time>2012-05-30T20:50:46Z</time>
      </trkpt>
      <trkpt lat="59.9145496" lon="17.6428162">
        <ele>26.0929</ele>
        <time>2012-05-30T20:50:54Z</time>
      </trkpt>
      <trkpt lat="59.915139" lon="17.642703">
        <ele>25.6123</ele>
        <time>2012-05-30T20:51:02Z</time>
      </trkpt>
      <trkpt lat="59.915289" lon="17.6426091">
        <ele>24.1703</ele>
        <time>2012-05-30T20:51:04Z</time>
      </trkpt>
      <trkpt lat="59.9158149" lon="17.6424655">
        <ele>23.6896</ele>
        <time>2012-05-30T20:51:10Z</time>
      </trkpt>
      <trkpt lat="59.9163682" lon="17.6424484">
        <ele>23.6896</ele>
        <time>2012-05-30T20:51:17Z</time>
      </trkpt>
      <trkpt lat="59.9169691" lon="17.6423549">
        <ele>23.209</ele>
        <time>2012-05-30T20:51:25Z</time>
      </trkpt>
      <trkpt lat="59.9171953" lon="17.6422918">
        <ele>22.7283</ele>
        <time>2012-05-30T20:51:28Z</time>
      </trkpt>
      <trkpt lat="59.9178789" lon="17.642269">
        <ele>23.209</ele>
        <time>2012-05-30T20:51:37Z</time>
      </trkpt>
      <trkpt lat="59.9183429" lon="17.6422342">
        <ele>25.6123</ele>
        <time>2012-05-30T20:51:44Z</time>
      </trkpt>
      <trkpt lat="59.9187965" lon="17.6421835">
        <ele>27.0543</ele>
        <time>2012-05-30T20:51:52Z</time>
      </trkpt>
      <trkpt lat="59.9193787" lon="17.6421084">
        <ele>27.5349</ele>
        <time>2012-05-30T20:52:02Z</time>
      </trkpt>
      <trkpt lat="59.919862" lon="17.6420328">
        <ele>27.5349</ele>
        <time>2012-05-30T20:52:10Z</time>
      </trkpt>
      <trkpt lat="59.9202904" lon="17.6419794">
        <ele>28.0155</ele>
        <time>2012-05-30T20:52:17Z</time>
      </trkpt>
      <trkpt lat="59.9209294" lon="17.6419591">
        <ele>27.5349</ele>
        <time>2012-05-30T20:52:27Z</time>
      </trkpt>
      <trkpt lat="59.9213028" lon="17.6419281">
        <ele>28.0155</ele>
        <time>2012-05-30T20:52:33Z</time>
      </trkpt>
      <trkpt lat="59.9217088" lon="17.6418722">
        <ele>28.9769</ele>
        <time>2012-05-30T20:52:40Z</time>
      </trkpt>
      <trkpt lat="59.9222911" lon="17.6418033">
        <ele>27.0543</ele>
        <time>2012-05-30T20:52:49Z</time>
      </trkpt>
      <trkpt lat="59.9228113" lon="17.6417333">
        <ele>26.5736</ele>
        <time>2012-05-30T20:52:57Z</time>
      </trkpt>
      <trkpt lat="59.923354" lon="17.6416685">
        <ele>25.6123</ele>
        <time>2012-05-30T20:53:05Z</time>
      </trkpt>
      <trkpt lat="59.9239835" lon="17.6415876">
        <ele>23.6896</ele>
        <time>2012-05-30T20:53:14Z</time>
      </trkpt>
      <trkpt lat="59.9247279" lon="17.6414868">
        <ele>22.7283</ele>
        <time>2012-05-30T20:53:24Z</time>
      </trkpt>
      <trkpt lat="59.9252883" lon="17.6414378">
        <ele>23.209</ele>
        <time>2012-05-30T20:53:32Z</time>
      </trkpt>
      <trkpt lat="59.9258312" lon="17.6413844">
        <ele>22.7283</ele>
        <time>2012-05-30T20:53:40Z</time>
      </trkpt>
      <trkpt lat="59.9264192" lon="17.6413018">
        <ele>22.2476</ele>
        <time>2012-05-30T20:53:48Z</time>
      </trkpt>
      <trkpt lat="59.9272599" lon="17.641208">
        <ele>22.2476</ele>
        <time>2012-05-30T20:54:00Z</time>
      </trkpt>
      <trkpt lat="59.9279427" lon="17.6411449">
        <ele>22.2476</ele>
        <time>2012-05-30T20:54:10Z</time>
      </trkpt>
      <trkpt lat="59.9284344" lon="17.6410775">
        <ele>22.2476</ele>
        <time>2012-05-30T20:54:18Z</time>
      </trkpt>
      <trkpt lat="59.9289087" lon="17.6409968">
        <ele>22.2476</ele>
        <time>2012-05-30T20:54:26Z</time>
      </trkpt>
      <trkpt lat="59.9294899" lon="17.6409477">
        <ele>22.2476</ele>
        <time>2012-05-30T20:54:35Z</time>
      </trkpt>
      <trkpt lat="59.9299326" lon="17.6408688">
        <ele>22.7283</ele>
        <time>2012-05-30T20:54:42Z</time>
      </trkpt>
      <trkpt lat="59.9305063" lon="17.6408867">
        <ele>23.209</ele>
        <time>2012-05-30T20:54:51Z</time>
      </trkpt>
      <trkpt lat="59.9308355" lon="17.6408495">
        <ele>24.1703</ele>
        <time>2012-05-30T20:54:57Z</time>
      </trkpt>
      <trkpt lat="59.9309475" lon="17.6408806">
        <ele>24.1703</ele>
        <time>2012-05-30T20:54:59Z</time>
      </trkpt>
      <trkpt lat="59.9313387" lon="17.6411565">
        <ele>25.6123</ele>
        <time>2012-05-30T20:55:07Z</time>
      </trkpt>
      <trkpt lat="59.9316183" lon="17.6413612">
        <ele>25.6123</ele>
        <time>2012-05-30T20:55:14Z</time>
      </trkpt>
      <trkpt lat="59.9319832" lon="17.6416161">
        <ele>26.0929</ele>
        <time>2012-05-30T20:55:22Z</time>
      </trkpt>
      <trkpt lat="59.9322471" lon="17.641857">
        <ele>25.6123</ele>
        <time>2012-05-30T20:55:28Z</time>
      </trkpt>
      <trkpt lat="59.9326289" lon="17.6422234">
        <ele>25.6123</ele>
        <time>2012-05-30T20:55:36Z</time>
      </trkpt>
      <trkpt lat="59.9326741" lon="17.6422754">
        <ele>26.0929</ele>
        <time>2012-05-30T20:55:37Z</time>
      </trkpt>
      <trkpt lat="59.9329424" lon="17.6427201">
        <ele>27.0543</ele>
        <time>2012-05-30T20:55:44Z</time>
      </trkpt>
      <trkpt lat="59.9332032" lon="17.6430874">
        <ele>28.4962</ele>
        <time>2012-05-30T20:55:51Z</time>
      </trkpt>
      <trkpt lat="59.9333875" lon="17.6433982">
        <ele>30.4188</ele>
        <time>2012-05-30T20:55:58Z</time>
      </trkpt>
      <trkpt lat="59.9336005" lon="17.6436609">
        <ele>31.3801</ele>
        <time>2012-05-30T20:56:06Z</time>
      </trkpt>
      <trkpt lat="59.9339087" lon="17.6439657">
        <ele>31.8607</ele>
        <time>2012-05-30T20:56:16Z</time>
      </trkpt>
      <trkpt lat="59.9341558" lon="17.6442798">
        <ele>32.3416</ele>
        <time>2012-05-30T20:56:23Z</time>
      </trkpt>
      <trkpt lat="59.9343433" lon="17.6445236">
        <ele>33.3029</ele>
        <time>2012-05-30T20:56:28Z</time>
      </trkpt>
      <trkpt lat="59.9345462" lon="17.6448536">
        <ele>34.7449</ele>
        <time>2012-05-30T20:56:35Z</time>
      </trkpt>
      <trkpt lat="59.934905" lon="17.6453205">
        <ele>35.7061</ele>
        <time>2012-05-30T20:56:45Z</time>
      </trkpt>
      <trkpt lat="59.9351741" lon="17.6455925">
        <ele>36.1868</ele>
        <time>2012-05-30T20:56:51Z</time>
      </trkpt>
      <trkpt lat="59.9355988" lon="17.6460883">
        <ele>37.1481</ele>
        <time>2012-05-30T20:57:00Z</time>
      </trkpt>
      <trkpt lat="59.9359521" lon="17.6465307">
        <ele>37.1481</ele>
        <time>2012-05-30T20:57:08Z</time>
      </trkpt>
      <trkpt lat="59.9362799" lon="17.646951">
        <ele>37.1481</ele>
        <time>2012-05-30T20:57:15Z</time>
      </trkpt>
      <trkpt lat="59.9365862" lon="17.6473532">
        <ele>36.6675</ele>
        <time>2012-05-30T20:57:21Z</time>
      </trkpt>
      <trkpt lat="59.9369484" lon="17.6478023">
        <ele>37.1481</ele>
        <time>2012-05-30T20:57:28Z</time>
      </trkpt>
      <trkpt lat="59.9373169" lon="17.6482622">
        <ele>35.7061</ele>
        <time>2012-05-30T20:57:35Z</time>
      </trkpt>
      <trkpt lat="59.9374809" lon="17.6485841">
        <ele>36.1868</ele>
        <time>2012-05-30T20:57:39Z</time>
      </trkpt>
      <trkpt lat="59.9376858" lon="17.6491584">
        <ele>35.7061</ele>
        <time>2012-05-30T20:57:45Z</time>
      </trkpt>
      <trkpt lat="59.9377754" lon="17.6493521">
        <ele>35.2255</ele>
        <time>2012-05-30T20:57:47Z</time>
      </trkpt>
      <trkpt lat="59.938064" lon="17.6501415">
        <ele>34.7449</ele>
        <time>2012-05-30T20:57:54Z</time>
      </trkpt>
      <trkpt lat="59.9384298" lon="17.6510709">
        <ele>34.2642</ele>
        <time>2012-05-30T20:58:02Z</time>
      </trkpt>
      <trkpt lat="59.9386685" lon="17.6517862">
        <ele>34.7449</ele>
        <time>2012-05-30T20:58:08Z</time>
      </trkpt>
      <trkpt lat="59.9389994" lon="17.6529844">
        <ele>35.2255</ele>
        <time>2012-05-30T20:58:18Z</time>
      </trkpt>
      <trkpt lat="59.9391541" lon="17.6536352">
        <ele>35.2255</ele>
        <time>2012-05-30T20:58:24Z</time>
      </trkpt>
      <trkpt lat="59.9393661" lon="17.6546484">
        <ele>35.2255</ele>
        <time>2012-05-30T20:58:33Z</time>
      </trkpt>
      <trkpt lat="59.9396248" lon="17.6559335">
        <ele>34.7449</ele>
        <time>2012-05-30T20:58:44Z</time>
      </trkpt>
      <trkpt lat="59.9399018" lon="17.6573234">
        <ele>34.2642</ele>
        <time>2012-05-30T20:58:55Z</time>
      </trkpt>
      <trkpt lat="59.9401201" lon="17.658378">
        <ele>33.3029</ele>
        <time>2012-05-30T20:59:03Z</time>
      </trkpt>
      <trkpt lat="59.9403325" lon="17.6594052">
        <ele>33.3029</ele>
        <time>2012-05-30T20:59:11Z</time>
      </trkpt>
      <trkpt lat="59.9403961" lon="17.6597619">
        <ele>33.7834</ele>
        <time>2012-05-30T20:59:14Z</time>
      </trkpt>
      <trkpt lat="59.940525" lon="17.6602992">
        <ele>34.7449</ele>
        <time>2012-05-30T20:59:19Z</time>
      </trkpt>
      <trkpt lat="59.9405114" lon="17.6606646">
        <ele>34.2642</ele>
        <time>2012-05-30T20:59:22Z</time>
      </trkpt>
      <trkpt lat="59.940485" lon="17.6607787">
        <ele>33.7834</ele>
        <time>2012-05-30T20:59:23Z</time>
      </trkpt>
      <trkpt lat="59.9403965" lon="17.6613828">
        <ele>31.8607</ele>
        <time>2012-05-30T20:59:28Z</time>
      </trkpt>
      <trkpt lat="59.940525" lon="17.6619672">
        <ele>33.3029</ele>
        <time>2012-05-30T20:59:34Z</time>
      </trkpt>
      <trkpt lat="59.940724" lon="17.6621302">
        <ele>33.7834</ele>
        <time>2012-05-30T20:59:38Z</time>
      </trkpt>
      <trkpt lat="59.94124" lon="17.6623428">
        <ele>33.7834</ele>
        <time>2012-05-30T20:59:47Z</time>
      </trkpt>
      <trkpt lat="59.9415587" lon="17.6627066">
        <ele>33.3029</ele>
        <time>2012-05-30T20:59:53Z</time>
      </trkpt>
      <trkpt lat="59.9419287" lon="17.6633565">
        <ele>32.8223</ele>
        <time>2012-05-30T21:00:01Z</time>
      </trkpt>
      <trkpt lat="59.9423989" lon="17.6640423">
        <ele>31.8607</ele>
        <time>2012-05-30T21:00:10Z</time>
      </trkpt>
      <trkpt lat="59.9427318" lon="17.6644361">
        <ele>30.8995</ele>
        <time>2012-05-30T21:00:16Z</time>
      </trkpt>
      <trkpt lat="59.9431675" lon="17.6648764">
        <ele>30.8995</ele>
        <time>2012-05-30T21:00:23Z</time>
      </trkpt>
      <trkpt lat="59.9438103" lon="17.6653587">
        <ele>29.4575</ele>
        <time>2012-05-30T21:00:32Z</time>
      </trkpt>
      <trkpt lat="59.9443854" lon="17.6656411">
        <ele>28.4962</ele>
        <time>2012-05-30T21:00:40Z</time>
      </trkpt>
      <trkpt lat="59.9452829" lon="17.6659827">
        <ele>27.5349</ele>
        <time>2012-05-30T21:00:52Z</time>
      </trkpt>
      <trkpt lat="59.9460379" lon="17.6662641">
        <ele>27.0543</ele>
        <time>2012-05-30T21:01:02Z</time>
      </trkpt>
      <trkpt lat="59.9464851" lon="17.6665088">
        <ele>26.5736</ele>
        <time>2012-05-30T21:01:08Z</time>
      </trkpt>
      <trkpt lat="59.9467039" lon="17.6665552">
        <ele>26.5736</ele>
        <time>2012-05-30T21:01:11Z</time>
      </trkpt>
      <trkpt lat="59.9471649" lon="17.6667277">
        <ele>26.5736</ele>
        <time>2012-05-30T21:01:18Z</time>
      </trkpt>
      <trkpt lat="59.9479534" lon="17.6671105">
        <ele>26.0929</ele>
        <time>2012-05-30T21:01:30Z</time>
      </trkpt>
      <trkpt lat="59.9486346" lon="17.6674976">
        <ele>25.6123</ele>
        <time>2012-05-30T21:01:40Z</time>
      </trkpt>
      <trkpt lat="59.9493404" lon="17.6678886">
        <ele>25.1317</ele>
        <time>2012-05-30T21:01:50Z</time>
      </trkpt>
      <trkpt lat="59.9498937" lon="17.6681773">
        <ele>24.651</ele>
        <time>2012-05-30T21:01:58Z</time>
      </trkpt>
      <trkpt lat="59.9503953" lon="17.6683077">
        <ele>24.651</ele>
        <time>2012-05-30T21:02:05Z</time>
      </trkpt>
      <trkpt lat="59.9509175" lon="17.6682543">
        <ele>24.1703</ele>
        <time>2012-05-30T21:02:12Z</time>
      </trkpt>
      <trkpt lat="59.951491" lon="17.6680887">
        <ele>22.7283</ele>
        <time>2012-05-30T21:02:20Z</time>
      </trkpt>
      <trkpt lat="59.9516944" lon="17.6682186">
        <ele>21.767</ele>
        <time>2012-05-30T21:02:23Z</time>
      </trkpt>
      <trkpt lat="59.9518108" lon="17.6686107">
        <ele>21.767</ele>
        <time>2012-05-30T21:02:26Z</time>
      </trkpt>
      <trkpt lat="59.9518436" lon="17.6690277">
        <ele>21.767</ele>
        <time>2012-05-30T21:02:29Z</time>
      </trkpt>
      <trkpt lat="59.9518367" lon="17.6691619">
        <ele>21.2864</ele>
        <time>2012-05-30T21:02:30Z</time>
      </trkpt>
      <trkpt lat="59.9517623" lon="17.670444">
        <ele>21.2864</ele>
        <time>2012-05-30T21:02:40Z</time>
      </trkpt>
      <trkpt lat="59.9517464" lon="17.67106">
        <ele>22.2476</ele>
        <time>2012-05-30T21:02:45Z</time>
      </trkpt>
      <trkpt lat="59.9517655" lon="17.6711691">
        <ele>23.209</ele>
        <time>2012-05-30T21:02:46Z</time>
      </trkpt>
      <trkpt lat="59.9518173" lon="17.671847">
        <ele>25.6123</ele>
        <time>2012-05-30T21:02:53Z</time>
      </trkpt>
      <trkpt lat="59.9518638" lon="17.6724251">
        <ele>27.0543</ele>
        <time>2012-05-30T21:02:59Z</time>
      </trkpt>
      <trkpt lat="59.9519835" lon="17.673336">
        <ele>29.4575</ele>
        <time>2012-05-30T21:03:09Z</time>
      </trkpt>
      <trkpt lat="59.9521347" lon="17.6741879">
        <ele>30.8995</ele>
        <time>2012-05-30T21:03:19Z</time>
      </trkpt>
      <trkpt lat="59.9522607" lon="17.6748269">
        <ele>31.3801</ele>
        <time>2012-05-30T21:03:27Z</time>
      </trkpt>
      <trkpt lat="59.9522978" lon="17.6750181">
        <ele>31.8607</ele>
        <time>2012-05-30T21:03:30Z</time>
      </trkpt>
      <trkpt lat="59.9524448" lon="17.6755122">
        <ele>31.8607</ele>
        <time>2012-05-30T21:03:37Z</time>
      </trkpt>
      <trkpt lat="59.9526554" lon="17.6760438">
        <ele>30.8995</ele>
        <time>2012-05-30T21:03:43Z</time>
      </trkpt>
      <trkpt lat="59.9528962" lon="17.6766963">
        <ele>30.4188</ele>
        <time>2012-05-30T21:03:50Z</time>
      </trkpt>
      <trkpt lat="59.9531501" lon="17.6773646">
        <ele>29.4575</ele>
        <time>2012-05-30T21:03:57Z</time>
      </trkpt>
      <trkpt lat="59.9535083" lon="17.678441">
        <ele>28.4962</ele>
        <time>2012-05-30T21:04:07Z</time>
      </trkpt>
      <trkpt lat="59.9538569" lon="17.6794925">
        <ele>27.5349</ele>
        <time>2012-05-30T21:04:16Z</time>
      </trkpt>
      <trkpt lat="59.9542748" lon="17.6806949">
        <ele>28.4962</ele>
        <time>2012-05-30T21:04:26Z</time>
      </trkpt>
      <trkpt lat="59.9545767" lon="17.6816288">
        <ele>29.4575</ele>
        <time>2012-05-30T21:04:34Z</time>
      </trkpt>
      <trkpt lat="59.9546156" lon="17.6817355">
        <ele>29.4575</ele>
        <time>2012-05-30T21:04:35Z</time>
      </trkpt>
      <trkpt lat="59.954818" lon="17.6820779">
        <ele>29.9381</ele>
        <time>2012-05-30T21:04:39Z</time>
      </trkpt>
      <trkpt lat="59.9548619" lon="17.6821791">
        <ele>29.9381</ele>
        <time>2012-05-30T21:04:40Z</time>
      </trkpt>
      <trkpt lat="59.9551081" lon="17.6830383">
        <ele>29.4575</ele>
        <time>2012-05-30T21:04:48Z</time>
      </trkpt>
      <trkpt lat="59.9553172" lon="17.6839014">
        <ele>28.4962</ele>
        <time>2012-05-30T21:04:56Z</time>
      </trkpt>
      <trkpt lat="59.9555167" lon="17.6850715">
        <ele>28.4962</ele>
        <time>2012-05-30T21:05:06Z</time>
      </trkpt>
      <trkpt lat="59.9556777" lon="17.6862341">
        <ele>28.4962</ele>
        <time>2012-05-30T21:05:16Z</time>
      </trkpt>
      <trkpt lat="59.9557989" lon="17.6870561">
        <ele>28.0155</ele>
        <time>2012-05-30T21:05:23Z</time>
      </trkpt>
      <trkpt lat="59.9559645" lon="17.6881295">
        <ele>27.5349</ele>
        <time>2012-05-30T21:05:32Z</time>
      </trkpt>
      <trkpt lat="59.9560548" lon="17.6887198">
        <ele>27.5349</ele>
        <time>2012-05-30T21:05:37Z</time>
      </trkpt>
      <trkpt lat="59.956211" lon="17.6892294">
        <ele>28.0155</ele>
        <time>2012-05-30T21:05:42Z</time>
      </trkpt>
      <trkpt lat="59.9564385" lon="17.6901766">
        <ele>28.4962</ele>
        <time>2012-05-30T21:05:51Z</time>
      </trkpt>
      <trkpt lat="59.9566042" lon="17.6906283">
        <ele>28.9769</ele>
        <time>2012-05-30T21:05:56Z</time>
      </trkpt>
      <trkpt lat="59.9568702" lon="17.6914543">
        <ele>28.9769</ele>
        <time>2012-05-30T21:06:03Z</time>
      </trkpt>
      <trkpt lat="59.9572372" lon="17.692548">
        <ele>27.5349</ele>
        <time>2012-05-30T21:06:12Z</time>
      </trkpt>
      <trkpt lat="59.9577023" lon="17.6938776">
        <ele>28.0155</ele>
        <time>2012-05-30T21:06:23Z</time>
      </trkpt>
      <trkpt lat="59.958095" lon="17.6950115">
        <ele>28.4962</ele>
        <time>2012-05-30T21:06:33Z</time>
      </trkpt>
      <trkpt lat="59.9585037" lon="17.6960552">
        <ele>29.4575</ele>
        <time>2012-05-30T21:06:43Z</time>
      </trkpt>
      <trkpt lat="59.9587667" lon="17.696803">
        <ele>29.9381</ele>
        <time>2012-05-30T21:06:50Z</time>
      </trkpt>
      <trkpt lat="59.9589096" lon="17.6974974">
        <ele>30.8995</ele>
        <time>2012-05-30T21:06:56Z</time>
      </trkpt>
      <trkpt lat="59.9589923" lon="17.6981109">
        <ele>32.3416</ele>
        <time>2012-05-30T21:07:02Z</time>
      </trkpt>
      <trkpt lat="59.9590222" lon="17.698993">
        <ele>33.3029</ele>
        <time>2012-05-30T21:07:11Z</time>
      </trkpt>
      <trkpt lat="59.9590653" lon="17.6998092">
        <ele>32.8223</ele>
        <time>2012-05-30T21:07:18Z</time>
      </trkpt>
      <trkpt lat="59.9591901" lon="17.7010436">
        <ele>33.3029</ele>
        <time>2012-05-30T21:07:28Z</time>
      </trkpt>
      <trkpt lat="59.959316" lon="17.7017876">
        <ele>33.7834</ele>
        <time>2012-05-30T21:07:35Z</time>
      </trkpt>
      <trkpt lat="59.9594672" lon="17.7023393">
        <ele>32.3416</ele>
        <time>2012-05-30T21:07:41Z</time>
      </trkpt>
      <trkpt lat="59.9597174" lon="17.7031416">
        <ele>32.8223</ele>
        <time>2012-05-30T21:07:50Z</time>
      </trkpt>
      <trkpt lat="59.9599468" lon="17.703853">
        <ele>31.3801</ele>
        <time>2012-05-30T21:07:57Z</time>
      </trkpt>
      <trkpt lat="59.9601767" lon="17.7043431">
        <ele>30.4188</ele>
        <time>2012-05-30T21:08:02Z</time>
      </trkpt>
      <trkpt lat="59.960767" lon="17.70511">
        <ele>31.3801</ele>
        <time>2012-05-30T21:08:12Z</time>
      </trkpt>
      <trkpt lat="59.9611554" lon="17.7057209">
        <ele>30.8995</ele>
        <time>2012-05-30T21:08:19Z</time>
      </trkpt>
      <trkpt lat="59.9614535" lon="17.7062576">
        <ele>31.3801</ele>
        <time>2012-05-30T21:08:25Z</time>
      </trkpt>
      <trkpt lat="59.9617873" lon="17.7066915">
        <ele>31.3801</ele>
        <time>2012-05-30T21:08:31Z</time>
      </trkpt>
      <trkpt lat="59.9621743" lon="17.7069682">
        <ele>31.3801</ele>
        <time>2012-05-30T21:08:37Z</time>
      </trkpt>
      <trkpt lat="59.962723" lon="17.7071878">
        <ele>29.9381</ele>
        <time>2012-05-30T21:08:45Z</time>
      </trkpt>
      <trkpt lat="59.9632471" lon="17.7072108">
        <ele>27.5349</ele>
        <time>2012-05-30T21:08:52Z</time>
      </trkpt>
      <trkpt lat="59.9638675" lon="17.7072481">
        <ele>25.1317</ele>
        <time>2012-05-30T21:09:00Z</time>
      </trkpt>
      <trkpt lat="59.9645608" lon="17.7074553">
        <ele>25.1317</ele>
        <time>2012-05-30T21:09:09Z</time>
      </trkpt>
      <trkpt lat="59.9651446" lon="17.7078723">
        <ele>25.1317</ele>
        <time>2012-05-30T21:09:17Z</time>
      </trkpt>
      <trkpt lat="59.965557" lon="17.708257">
        <ele>26.0929</ele>
        <time>2012-05-30T21:09:23Z</time>
      </trkpt>
      <trkpt lat="59.9658746" lon="17.7088703">
        <ele>27.0543</ele>
        <time>2012-05-30T21:09:29Z</time>
      </trkpt>
      <trkpt lat="59.9661743" lon="17.7098537">
        <ele>27.5349</ele>
        <time>2012-05-30T21:09:37Z</time>
      </trkpt>
      <trkpt lat="59.9664448" lon="17.7108069">
        <ele>28.4962</ele>
        <time>2012-05-30T21:09:45Z</time>
      </trkpt>
      <trkpt lat="59.9667059" lon="17.711661">
        <ele>29.4575</ele>
        <time>2012-05-30T21:09:53Z</time>
      </trkpt>
      <trkpt lat="59.9670218" lon="17.7125406">
        <ele>29.9381</ele>
        <time>2012-05-30T21:10:02Z</time>
      </trkpt>
      <trkpt lat="59.9672078" lon="17.7132217">
        <ele>28.9769</ele>
        <time>2012-05-30T21:10:08Z</time>
      </trkpt>
      <trkpt lat="59.9673503" lon="17.7140941">
        <ele>26.5736</ele>
        <time>2012-05-30T21:10:14Z</time>
      </trkpt>
      <trkpt lat="59.9675103" lon="17.7152449">
        <ele>24.651</ele>
        <time>2012-05-30T21:10:21Z</time>
      </trkpt>
      <trkpt lat="59.9675357" lon="17.7154013">
        <ele>25.1317</ele>
        <time>2012-05-30T21:10:22Z</time>
      </trkpt>
      <trkpt lat="59.9677621" lon="17.7162335">
        <ele>26.0929</ele>
        <time>2012-05-30T21:10:29Z</time>
      </trkpt>
      <trkpt lat="59.9679346" lon="17.7165976">
        <ele>27.5349</ele>
        <time>2012-05-30T21:10:34Z</time>
      </trkpt>
      <trkpt lat="59.9681704" lon="17.716926">
        <ele>29.4575</ele>
        <time>2012-05-30T21:10:41Z</time>
      </trkpt>
      <trkpt lat="59.968489" lon="17.7171907">
        <ele>30.8995</ele>
        <time>2012-05-30T21:10:50Z</time>
      </trkpt>
      <trkpt lat="59.9688218" lon="17.7173449">
        <ele>30.8995</ele>
        <time>2012-05-30T21:10:58Z</time>
      </trkpt>
      <trkpt lat="59.9692235" lon="17.7174957">
        <ele>30.8995</ele>
        <time>2012-05-30T21:11:06Z</time>
      </trkpt>
      <trkpt lat="59.9696386" lon="17.7177318">
        <ele>29.4575</ele>
        <time>2012-05-30T21:11:13Z</time>
      </trkpt>
      <trkpt lat="59.9701247" lon="17.7181328">
        <ele>29.4575</ele>
        <time>2012-05-30T21:11:21Z</time>
      </trkpt>
      <trkpt lat="59.9708366" lon="17.7187815">
        <ele>28.9769</ele>
        <time>2012-05-30T21:11:32Z</time>
      </trkpt>
      <trkpt lat="59.9716004" lon="17.7194582">
        <ele>29.4575</ele>
        <time>2012-05-30T21:11:43Z</time>
      </trkpt>
      <trkpt lat="59.9723273" lon="17.7201003">
        <ele>29.4575</ele>
        <time>2012-05-30T21:11:53Z</time>
      </trkpt>
      <trkpt lat="59.9728707" lon="17.7206361">
        <ele>29.4575</ele>
        <time>2012-05-30T21:12:01Z</time>
      </trkpt>
      <trkpt lat="59.9733028" lon="17.7212685">
        <ele>28.9769</ele>
        <time>2012-05-30T21:12:08Z</time>
      </trkpt>
      <trkpt lat="59.9736668" lon="17.7220702">
        <ele>28.4962</ele>
        <time>2012-05-30T21:12:15Z</time>
      </trkpt>
      <trkpt lat="59.9739419" lon="17.7230067">
        <ele>28.4962</ele>
        <time>2012-05-30T21:12:22Z</time>
      </trkpt>
      <trkpt lat="59.9741196" lon="17.7239912">
        <ele>28.9769</ele>
        <time>2012-05-30T21:12:29Z</time>
      </trkpt>
      <trkpt lat="59.9742496" lon="17.7248853">
        <ele>28.9769</ele>
        <time>2012-05-30T21:12:36Z</time>
      </trkpt>
      <trkpt lat="59.9743653" lon="17.7260295">
        <ele>29.4575</ele>
        <time>2012-05-30T21:12:45Z</time>
      </trkpt>
      <trkpt lat="59.9743997" lon="17.7270652">
        <ele>28.0155</ele>
        <time>2012-05-30T21:12:53Z</time>
      </trkpt>
      <trkpt lat="59.9744176" lon="17.7282039">
        <ele>26.5736</ele>
        <time>2012-05-30T21:13:01Z</time>
      </trkpt>
      <trkpt lat="59.9744387" lon="17.7291345">
        <ele>26.5736</ele>
        <time>2012-05-30T21:13:08Z</time>
      </trkpt>
      <trkpt lat="59.9744107" lon="17.7300478">
        <ele>27.0543</ele>
        <time>2012-05-30T21:13:15Z</time>
      </trkpt>
      <trkpt lat="59.9743228" lon="17.7311873">
        <ele>27.0543</ele>
        <time>2012-05-30T21:13:24Z</time>
      </trkpt>
      <trkpt lat="59.9743195" lon="17.7323623">
        <ele>27.0543</ele>
        <time>2012-05-30T21:13:33Z</time>
      </trkpt>
      <trkpt lat="59.9743076" lon="17.7334433">
        <ele>27.0543</ele>
        <time>2012-05-30T21:13:41Z</time>
      </trkpt>
      <trkpt lat="59.9742666" lon="17.734601">
        <ele>27.5349</ele>
        <time>2012-05-30T21:13:50Z</time>
      </trkpt>
      <trkpt lat="59.9743294" lon="17.7354455">
        <ele>27.5349</ele>
        <time>2012-05-30T21:13:57Z</time>
      </trkpt>
      <trkpt lat="59.9743574" lon="17.7356697">
        <ele>28.0155</ele>
        <time>2012-05-30T21:13:59Z</time>
      </trkpt>
      <trkpt lat="59.9745944" lon="17.7367128">
        <ele>28.0155</ele>
        <time>2012-05-30T21:14:09Z</time>
      </trkpt>
      <trkpt lat="59.9748705" lon="17.7374356">
        <ele>28.4962</ele>
        <time>2012-05-30T21:14:17Z</time>
      </trkpt>
      <trkpt lat="59.9749448" lon="17.7375935">
        <ele>28.4962</ele>
        <time>2012-05-30T21:14:19Z</time>
      </trkpt>
      <trkpt lat="59.9754115" lon="17.7384067">
        <ele>28.9769</ele>
        <time>2012-05-30T21:14:30Z</time>
      </trkpt>
      <trkpt lat="59.9758573" lon="17.7391985">
        <ele>29.4575</ele>
        <time>2012-05-30T21:14:40Z</time>
      </trkpt>
      <trkpt lat="59.9761264" lon="17.7396101">
        <ele>31.3801</ele>
        <time>2012-05-30T21:14:47Z</time>
      </trkpt>
      <trkpt lat="59.9762419" lon="17.7397271">
        <ele>32.3416</ele>
        <time>2012-05-30T21:14:51Z</time>
      </trkpt>
      <trkpt lat="59.9763871" lon="17.7397041">
        <ele>32.8223</ele>
        <time>2012-05-30T21:14:56Z</time>
      </trkpt>
      <trkpt lat="59.9767133" lon="17.7394402">
        <ele>33.7834</ele>
        <time>2012-05-30T21:15:05Z</time>
      </trkpt>
      <trkpt lat="59.976978" lon="17.7393186">
        <ele>34.7449</ele>
        <time>2012-05-30T21:15:13Z</time>
      </trkpt>
      <trkpt lat="59.9771664" lon="17.7392124">
        <ele>32.8223</ele>
        <time>2012-05-30T21:15:19Z</time>
      </trkpt>
      <trkpt lat="59.9774005" lon="17.7390844">
        <ele>32.3416</ele>
        <time>2012-05-30T21:15:26Z</time>
      </trkpt>
      <trkpt lat="59.9776706" lon="17.7390539">
        <ele>33.7834</ele>
        <time>2012-05-30T21:15:34Z</time>
      </trkpt>
      <trkpt lat="59.977904" lon="17.739115">
        <ele>35.7061</ele>
        <time>2012-05-30T21:15:41Z</time>
      </trkpt>
      <trkpt lat="59.9781596" lon="17.7392372">
        <ele>36.1868</ele>
        <time>2012-05-30T21:15:48Z</time>
      </trkpt>
      <trkpt lat="59.978406" lon="17.7392972">
        <ele>35.7061</ele>
        <time>2012-05-30T21:15:54Z</time>
      </trkpt>
      <trkpt lat="59.9786832" lon="17.7393536">
        <ele>34.7449</ele>
        <time>2012-05-30T21:16:00Z</time>
      </trkpt>
      <trkpt lat="59.9787372" lon="17.7393577">
        <ele>35.2255</ele>
        <time>2012-05-30T21:16:01Z</time>
      </trkpt>
    </trkseg>
  </trk>
</gpx>